createdAt,value
2017-09-11T00:01:01.097Z,3.70
2017-09-11T00:03:30.600Z,3.63
2017-09-11T00:05:59.935Z,3.33
2017-09-11T00:08:29.283Z,3.67
2017-09-11T00:10:58.607Z,4.10
2017-09-11T00:13:27.999Z,5.07
2017-09-11T00:15:57.436Z,5.20
2017-09-11T00:18:26.747Z,5.13
2017-09-11T00:20:56.255Z,4.57
2017-09-11T00:23:25.548Z,3.80
2017-09-11T00:25:54.887Z,5.30
2017-09-11T00:28:24.343Z,3.50
2017-09-11T00:30:53.978Z,3.60
2017-09-11T00:33:23.335Z,3.90
2017-09-11T00:35:52.640Z,3.67
2017-09-11T00:38:21.988Z,3.37
2017-09-11T00:40:51.384Z,3.50
2017-09-11T00:43:21.136Z,3.23
2017-09-11T00:45:50.760Z,3.00
2017-09-11T00:48:20.047Z,3.00
2017-09-11T00:50:49.377Z,3.30
2017-09-11T00:53:18.692Z,3.10
2017-09-11T00:55:48.056Z,3.30
2017-09-11T00:58:17.377Z,3.57
2017-09-11T01:00:46.719Z,3.17
2017-09-11T01:03:16.102Z,3.13
2017-09-11T01:05:45.435Z,2.73
2017-09-11T01:08:14.732Z,4.30
2017-09-11T01:10:44.088Z,3.37
2017-09-11T01:13:13.432Z,3.30
2017-09-11T01:15:42.901Z,3.07
2017-09-11T01:18:12.251Z,3.00
2017-09-11T01:20:41.653Z,3.73
2017-09-11T01:23:11.008Z,3.07
2017-09-11T01:25:40.527Z,3.00
2017-09-11T01:28:10.003Z,3.30
2017-09-11T01:30:46.117Z,3.20
2017-09-11T01:33:15.481Z,3.57
2017-09-11T01:35:44.849Z,3.03
2017-09-11T01:38:14.160Z,3.00
2017-09-11T01:40:43.517Z,2.80
2017-09-11T01:43:12.951Z,3.53
2017-09-11T01:45:42.318Z,3.30
2017-09-11T01:48:11.685Z,3.23
2017-09-11T01:50:41.002Z,3.37
2017-09-11T01:53:10.263Z,3.30
2017-09-11T01:55:39.608Z,3.67
2017-09-11T01:58:08.884Z,3.10
2017-09-11T02:00:38.198Z,3.80
2017-09-11T02:03:07.544Z,3.70
2017-09-11T02:05:36.935Z,3.47
2017-09-11T02:08:06.216Z,3.43
2017-09-11T02:10:35.552Z,3.50
2017-09-11T02:13:04.873Z,3.87
2017-09-11T02:15:34.344Z,3.40
2017-09-11T02:18:03.769Z,3.93
2017-09-11T02:20:33.149Z,3.90
2017-09-11T02:23:02.448Z,3.43
2017-09-11T02:25:31.762Z,4.10
2017-09-11T02:28:02.132Z,3.57
2017-09-11T02:30:31.515Z,3.70
2017-09-11T02:33:00.958Z,3.80
2017-09-11T02:35:30.340Z,3.50
2017-09-11T02:37:59.871Z,3.73
2017-09-11T02:40:29.462Z,4.10
2017-09-11T02:42:58.787Z,3.50
2017-09-11T02:45:28.276Z,3.80
2017-09-11T02:47:57.643Z,3.57
2017-09-11T02:50:27.148Z,3.83
2017-09-11T02:52:56.485Z,3.37
2017-09-11T02:55:25.811Z,4.10
2017-09-11T02:57:55.225Z,4.17
2017-09-11T03:00:24.641Z,3.60
2017-09-11T03:02:54.032Z,4.37
2017-09-11T03:05:23.486Z,3.87
2017-09-11T03:07:52.842Z,4.37
2017-09-11T03:10:22.363Z,3.80
2017-09-11T03:12:53.726Z,4.00
2017-09-11T03:15:23.220Z,3.93
2017-09-11T03:17:52.527Z,4.37
2017-09-11T03:20:22.247Z,4.20
2017-09-11T03:22:51.553Z,3.90
2017-09-11T03:25:20.961Z,3.70
2017-09-11T03:27:50.516Z,3.70
2017-09-11T03:30:20.042Z,3.40
2017-09-11T03:32:49.560Z,3.80
2017-09-11T03:35:19.098Z,3.87
2017-09-11T03:37:48.527Z,3.63
2017-09-11T03:40:17.895Z,3.50
2017-09-11T03:42:47.184Z,3.90
2017-09-11T03:45:16.534Z,3.37
2017-09-11T03:47:45.815Z,3.63
2017-09-11T03:50:15.281Z,3.63
2017-09-11T03:52:44.969Z,3.33
2017-09-11T03:55:14.576Z,3.60
2017-09-11T03:57:44.049Z,3.80
2017-09-11T04:00:13.415Z,3.70
2017-09-11T04:02:43.020Z,3.77
2017-09-11T04:05:12.549Z,3.90
2017-09-11T04:07:41.892Z,4.03
2017-09-11T04:10:11.318Z,3.57
2017-09-11T04:12:40.677Z,3.43
2017-09-11T04:15:10.384Z,3.77
2017-09-11T04:17:39.668Z,3.70
2017-09-11T04:20:09.027Z,3.37
2017-09-11T04:22:39.248Z,3.70
2017-09-11T04:25:08.652Z,3.50
2017-09-11T04:27:37.991Z,3.70
2017-09-11T04:30:07.473Z,4.03
2017-09-11T04:32:36.988Z,4.53
2017-09-11T04:35:06.917Z,3.77
2017-09-11T04:37:36.340Z,4.30
2017-09-11T04:40:05.868Z,3.67
2017-09-11T04:42:35.465Z,3.90
2017-09-11T04:45:04.827Z,3.57
2017-09-11T04:47:34.214Z,3.10
2017-09-11T04:50:03.560Z,3.87
2017-09-11T04:52:32.921Z,3.70
2017-09-11T04:55:02.276Z,3.57
2017-09-11T04:57:31.714Z,3.83
2017-09-11T05:00:01.313Z,3.60
2017-09-11T05:02:30.802Z,4.10
2017-09-11T05:05:00.348Z,3.20
2017-09-11T05:07:29.744Z,3.40
2017-09-11T05:09:59.338Z,3.20
2017-09-11T05:12:28.839Z,3.33
2017-09-11T05:14:58.126Z,3.40
2017-09-11T05:17:27.469Z,3.13
2017-09-11T05:19:56.910Z,3.30
2017-09-11T05:22:26.365Z,3.13
2017-09-11T05:24:55.721Z,3.37
2017-09-11T05:27:25.038Z,3.40
2017-09-11T05:29:54.502Z,3.53
2017-09-11T05:32:24.072Z,3.00
2017-09-11T05:34:53.438Z,3.37
2017-09-11T05:37:22.755Z,2.97
2017-09-11T05:39:53.061Z,2.87
2017-09-11T05:42:23.334Z,2.80
2017-09-11T05:44:52.726Z,2.90
2017-09-11T05:47:22.141Z,2.80
2017-09-11T05:49:51.553Z,3.17
2017-09-11T05:52:20.990Z,2.73
2017-09-11T05:54:50.391Z,2.80
2017-09-11T05:57:20.447Z,2.30
2017-09-11T05:59:49.777Z,2.30
2017-09-11T06:02:19.255Z,3.03
2017-09-11T06:04:48.724Z,2.83
2017-09-11T06:07:26.787Z,2.30
2017-09-11T06:09:56.730Z,2.43
2017-09-11T06:12:58.524Z,2.10
2017-09-11T06:15:27.933Z,1.90
2017-09-11T06:17:57.299Z,1.97
2017-09-11T06:20:26.676Z,2.17
2017-09-11T06:23:01.428Z,1.90
2017-09-11T06:25:31.497Z,2.00
2017-09-11T06:28:00.804Z,1.87
2017-09-11T06:30:30.180Z,2.10
2017-09-11T06:32:59.505Z,1.80
2017-09-11T06:35:29.073Z,1.80
2017-09-11T06:37:58.547Z,1.83
2017-09-11T06:40:27.871Z,1.90
2017-09-11T06:42:57.188Z,2.50
2017-09-11T06:45:26.611Z,1.80
2017-09-11T06:47:55.960Z,1.80
2017-09-11T06:50:25.308Z,1.93
2017-09-11T06:52:54.772Z,1.93
2017-09-11T06:55:24.116Z,1.90
2017-09-11T06:57:53.373Z,2.10
2017-09-11T07:00:23.395Z,2.03
2017-09-11T07:02:52.729Z,2.53
2017-09-11T07:05:22.349Z,1.87
2017-09-11T07:07:51.628Z,2.50
2017-09-11T07:10:20.956Z,2.00
2017-09-11T07:13:31.517Z,1.87
2017-09-11T07:16:00.988Z,1.90
2017-09-11T07:18:30.263Z,2.03
2017-09-11T07:21:00.249Z,1.97
2017-09-11T07:23:29.741Z,1.80
2017-09-11T07:25:59.784Z,1.90
2017-09-11T07:28:53.020Z,1.80
2017-09-11T07:31:23.057Z,2.50
2017-09-11T07:33:52.879Z,2.60
2017-09-11T07:36:22.478Z,2.20
2017-09-11T07:38:52.988Z,1.90
2017-09-11T07:41:23.481Z,2.20
2017-09-11T07:43:52.855Z,2.10
2017-09-11T07:46:22.182Z,2.20
2017-09-11T07:48:51.468Z,2.23
2017-09-11T07:51:20.829Z,2.50
2017-09-11T07:53:50.501Z,2.50
2017-09-11T07:56:20.844Z,2.10
2017-09-11T07:58:50.715Z,1.77
2017-09-11T08:01:20.281Z,2.37
2017-09-11T08:03:49.620Z,2.00
2017-09-11T08:06:19.151Z,2.47
2017-09-11T08:08:48.517Z,2.00
2017-09-11T08:11:17.860Z,2.30
2017-09-11T08:13:47.196Z,2.13
2017-09-11T08:16:16.638Z,2.10
2017-09-11T08:18:46.010Z,2.00
2017-09-11T08:21:15.565Z,2.37
2017-09-11T08:23:44.940Z,2.07
2017-09-11T08:26:14.739Z,1.83
2017-09-11T08:28:44.745Z,1.90
2017-09-11T08:31:14.390Z,2.10
2017-09-11T08:33:43.725Z,2.03
2017-09-11T08:36:13.055Z,2.00
2017-09-11T08:38:42.467Z,2.40
2017-09-11T08:41:11.865Z,2.00
2017-09-11T08:43:41.277Z,1.57
2017-09-11T08:46:10.643Z,1.90
2017-09-11T08:48:39.940Z,1.73
2017-09-11T08:51:09.339Z,1.57
2017-09-11T08:53:38.641Z,1.60
2017-09-11T08:56:07.976Z,1.80
2017-09-11T08:58:37.601Z,1.63
2017-09-11T09:01:06.948Z,1.87
2017-09-11T09:03:36.557Z,1.70
2017-09-11T09:06:05.967Z,1.50
2017-09-11T09:08:35.429Z,1.67
2017-09-11T09:11:05.177Z,2.00
2017-09-11T09:13:34.479Z,1.83
2017-09-11T09:16:03.976Z,1.50
2017-09-11T09:18:39.212Z,1.50
2017-09-11T09:21:19.164Z,1.40
2017-09-11T09:23:54.165Z,1.70
2017-09-11T09:26:34.486Z,1.70
2017-09-11T09:29:04.069Z,1.60
2017-09-11T09:31:34.162Z,1.70
2017-09-11T09:34:04.387Z,1.73
2017-09-11T09:36:33.954Z,1.60
2017-09-11T09:39:03.537Z,1.90
2017-09-11T09:41:33.937Z,1.30
2017-09-11T09:44:03.759Z,1.60
2017-09-11T09:46:33.184Z,1.70
2017-09-11T09:49:06.525Z,1.63
2017-09-11T09:53:27.890Z,1.60
2017-09-11T09:58:45.636Z,1.70
2017-09-11T10:01:14.956Z,2.30
2017-09-11T10:03:44.344Z,1.60
2017-09-11T10:06:13.719Z,1.47
2017-09-11T10:08:43.045Z,1.77
2017-09-11T10:11:12.949Z,1.73
2017-09-11T10:13:42.296Z,1.50
2017-09-11T10:16:11.651Z,1.40
2017-09-11T10:18:40.993Z,1.70
2017-09-11T10:21:10.533Z,2.57
2017-09-11T10:23:39.875Z,1.73
2017-09-11T10:26:09.526Z,1.33
2017-09-11T10:28:38.869Z,1.80
2017-09-11T10:31:08.207Z,1.50
2017-09-11T10:33:38.597Z,1.60
2017-09-11T10:36:08.700Z,1.77
2017-09-11T10:38:38.879Z,1.70
2017-09-11T10:41:08.535Z,1.70
2017-09-11T10:43:38.162Z,1.50
2017-09-11T10:46:07.536Z,1.70
2017-09-11T10:48:36.945Z,1.73
2017-09-11T10:51:06.437Z,1.87
2017-09-11T10:53:35.800Z,1.90
2017-09-11T10:56:05.320Z,1.70
2017-09-11T10:58:34.797Z,1.50
2017-09-11T11:01:04.600Z,1.57
2017-09-11T11:03:34.166Z,1.50
2017-09-11T11:06:05.547Z,1.57
2017-09-11T11:08:35.041Z,1.77
2017-09-11T11:11:04.548Z,1.70
2017-09-11T11:13:34.040Z,1.67
2017-09-11T11:16:03.421Z,1.80
2017-09-11T11:18:32.806Z,1.73
2017-09-11T11:21:02.309Z,1.50
2017-09-11T11:23:31.745Z,1.50
2017-09-11T11:26:01.148Z,1.80
2017-09-11T11:28:30.528Z,1.43
2017-09-11T11:30:59.865Z,1.63
2017-09-11T11:33:29.211Z,1.47
2017-09-11T11:35:58.742Z,1.43
2017-09-11T11:38:28.119Z,1.50
2017-09-11T11:41:04.081Z,1.37
2017-09-11T11:43:33.392Z,1.30
2017-09-11T11:46:02.735Z,1.23
2017-09-11T11:48:33.667Z,1.57
2017-09-11T11:51:03.058Z,1.60
2017-09-11T11:53:32.411Z,1.37
2017-09-11T11:56:02.249Z,1.37
2017-09-11T11:58:31.611Z,1.60
2017-09-11T12:01:01.002Z,1.50
2017-09-11T12:06:16.258Z,2.10
2017-09-11T12:08:45.596Z,1.37
2017-09-11T12:11:15.577Z,1.50
2017-09-11T12:13:44.891Z,1.40
2017-09-11T12:16:14.295Z,1.70
2017-09-11T12:18:43.664Z,1.70
2017-09-11T12:21:12.989Z,1.37
2017-09-11T12:23:42.329Z,2.00
2017-09-11T12:26:11.786Z,1.27
2017-09-11T12:28:42.139Z,1.30
2017-09-11T12:31:11.514Z,2.00
2017-09-11T12:33:40.864Z,1.40
2017-09-11T12:36:10.208Z,1.30
2017-09-11T12:38:39.491Z,1.70
2017-09-11T12:41:08.872Z,1.60
2017-09-11T12:43:38.221Z,1.83
2017-09-11T12:46:07.751Z,1.70
2017-09-11T12:48:37.068Z,1.97
2017-09-11T12:51:06.461Z,1.70
2017-09-11T12:53:35.872Z,1.50
2017-09-11T12:56:05.396Z,1.50
2017-09-11T12:58:34.704Z,1.50
2017-09-11T13:01:04.343Z,1.60
2017-09-11T13:03:34.012Z,1.40
2017-09-11T13:06:03.404Z,1.70
2017-09-11T13:08:32.832Z,1.73
2017-09-11T13:11:02.847Z,1.87
2017-09-11T13:13:32.605Z,1.77
2017-09-11T13:16:02.364Z,1.60
2017-09-11T13:18:31.673Z,1.70
2017-09-11T13:21:00.981Z,1.40
2017-09-11T13:23:30.334Z,1.60
2017-09-11T13:25:59.677Z,1.63
2017-09-11T13:28:29.001Z,1.40
2017-09-11T13:30:58.307Z,1.40
2017-09-11T13:33:27.745Z,1.40
2017-09-11T13:35:57.264Z,1.40
2017-09-11T13:38:26.777Z,1.73
2017-09-11T13:40:56.292Z,1.80
2017-09-11T13:43:25.716Z,1.70
2017-09-11T13:45:55.087Z,1.70
2017-09-11T13:48:24.416Z,1.57
2017-09-11T13:51:00.581Z,1.87
2017-09-11T13:53:29.876Z,1.70
2017-09-11T13:55:59.227Z,3.60
2017-09-11T13:58:28.593Z,1.73
2017-09-11T14:00:58.022Z,1.67
2017-09-11T14:03:27.464Z,1.67
2017-09-11T14:05:56.908Z,2.50
2017-09-11T14:08:26.278Z,4.33
2017-09-11T14:10:58.772Z,1.67
2017-09-11T14:13:28.281Z,2.27
2017-09-11T14:15:57.919Z,2.13
2017-09-11T14:18:27.334Z,1.73
2017-09-11T14:20:56.690Z,3.67
2017-09-11T14:23:26.164Z,1.60
2017-09-11T14:25:55.572Z,3.63
2017-09-11T14:28:25.020Z,3.30
2017-09-11T14:30:54.463Z,2.53
2017-09-11T14:33:23.856Z,2.63
2017-09-11T14:35:53.157Z,1.77
2017-09-11T14:38:22.574Z,1.53
2017-09-11T14:40:51.952Z,2.00
2017-09-11T14:43:21.252Z,1.63
2017-09-11T14:45:50.547Z,3.37
2017-09-11T14:48:19.859Z,1.80
2017-09-11T14:50:49.556Z,1.50
2017-09-11T14:53:18.846Z,1.87
2017-09-11T14:55:48.189Z,2.50
2017-09-11T14:58:18.045Z,1.77
2017-09-11T15:00:47.377Z,2.10
2017-09-11T15:03:16.809Z,2.20
2017-09-11T15:05:46.144Z,3.73
2017-09-11T15:08:15.422Z,1.73
2017-09-11T15:10:44.941Z,3.70
2017-09-11T15:13:14.257Z,3.60
2017-09-11T15:15:43.641Z,2.13
2017-09-11T15:18:12.948Z,2.07
2017-09-11T15:23:17.901Z,2.40
2017-09-11T15:25:47.262Z,1.60
2017-09-11T15:28:16.669Z,1.80
2017-09-11T15:30:46.046Z,1.77
2017-09-11T15:33:15.512Z,2.57
2017-09-11T15:35:44.929Z,2.03
2017-09-11T15:38:14.289Z,1.90
2017-09-11T15:40:43.742Z,2.63
2017-09-11T15:43:13.134Z,1.60
2017-09-11T15:45:42.536Z,1.53
2017-09-11T15:48:11.823Z,1.97
2017-09-11T15:50:41.282Z,1.83
2017-09-11T15:53:10.805Z,3.00
2017-09-11T15:55:40.206Z,1.90
2017-09-11T15:58:09.770Z,2.23
2017-09-11T16:00:39.476Z,1.60
2017-09-11T16:03:15.567Z,2.90
2017-09-11T16:05:45.250Z,1.63
2017-09-11T16:08:14.747Z,6.43
2017-09-11T16:10:44.109Z,7.10
2017-09-11T16:13:13.604Z,1.93
2017-09-11T16:15:43.810Z,1.43
2017-09-11T16:18:13.158Z,1.83
2017-09-11T16:20:43.516Z,1.20
2017-09-11T16:23:13.167Z,1.90
2017-09-11T16:25:42.597Z,1.87
2017-09-11T16:28:12.162Z,1.37
2017-09-11T16:30:41.784Z,2.17
2017-09-11T16:33:11.069Z,1.80
2017-09-11T16:35:40.526Z,1.20
2017-09-11T16:38:09.845Z,1.37
2017-09-11T16:40:41.883Z,1.57
2017-09-11T16:43:12.278Z,1.97
2017-09-11T16:45:41.861Z,1.90
2017-09-11T16:48:11.236Z,1.90
2017-09-11T16:50:41.055Z,3.23
2017-09-11T16:53:14.388Z,3.60
2017-09-11T16:55:49.730Z,4.77
2017-09-11T16:58:20.356Z,2.73
2017-09-11T17:00:49.928Z,2.40
2017-09-11T17:03:19.288Z,3.33
2017-09-11T17:05:48.667Z,4.37
2017-09-11T17:08:17.966Z,3.80
2017-09-11T17:10:47.408Z,3.80
2017-09-11T17:13:18.041Z,5.60
2017-09-11T17:15:47.868Z,2.30
2017-09-11T17:18:17.220Z,1.97
2017-09-11T17:20:46.636Z,1.70
2017-09-11T17:23:15.993Z,1.60
2017-09-11T17:25:52.122Z,2.43
2017-09-11T17:28:22.852Z,1.63
2017-09-11T17:30:56.559Z,1.53
2017-09-11T17:33:28.667Z,1.80
2017-09-11T17:35:59.154Z,1.70
2017-09-11T17:38:28.519Z,1.67
2017-09-11T17:40:57.934Z,1.47
2017-09-11T17:43:27.300Z,1.53
2017-09-11T17:45:57.792Z,1.43
2017-09-11T17:48:28.260Z,1.60
2017-09-11T17:50:57.896Z,2.10
2017-09-11T17:53:28.216Z,2.10
2017-09-11T17:55:57.673Z,1.60
2017-09-11T17:58:27.020Z,1.70
2017-09-11T18:00:56.668Z,2.30
2017-09-11T18:03:26.727Z,3.00
2017-09-11T18:05:56.183Z,2.40
2017-09-11T18:08:25.577Z,2.77
2017-09-11T18:10:54.994Z,2.20
2017-09-11T18:13:25.648Z,4.10
2017-09-11T18:15:55.081Z,2.40
2017-09-11T18:18:24.508Z,2.50
2017-09-11T18:20:54.116Z,2.50
2017-09-11T18:23:23.385Z,3.23
2017-09-11T18:25:52.684Z,2.00
2017-09-11T18:28:22.335Z,1.50
2017-09-11T18:30:51.720Z,1.70
2017-09-11T18:33:21.888Z,2.20
2017-09-11T18:35:51.583Z,2.30
2017-09-11T18:38:20.927Z,3.17
2017-09-11T18:40:50.298Z,2.33
2017-09-11T18:43:19.926Z,1.63
2017-09-11T18:45:49.789Z,1.50
2017-09-11T18:48:20.131Z,1.60
2017-09-11T18:50:49.790Z,1.40
2017-09-11T18:53:19.238Z,2.00
2017-09-11T18:55:48.719Z,1.97
2017-09-11T18:58:23.134Z,2.20
2017-09-11T19:00:53.993Z,2.07
2017-09-11T19:03:23.929Z,1.80
2017-09-11T19:05:53.741Z,1.80
2017-09-11T19:08:23.075Z,1.70
2017-09-11T19:10:53.322Z,1.50
2017-09-11T19:13:22.729Z,1.53
2017-09-11T19:15:52.065Z,1.50
2017-09-11T19:18:21.391Z,1.40
2017-09-11T19:20:50.717Z,1.60
2017-09-11T19:23:20.023Z,1.50
2017-09-11T19:25:50.450Z,2.73
2017-09-11T19:28:19.737Z,1.47
2017-09-11T19:30:49.497Z,1.57
2017-09-11T19:33:19.052Z,1.60
2017-09-11T19:35:48.809Z,1.43
2017-09-11T19:38:18.316Z,1.70
2017-09-11T19:40:47.639Z,1.63
2017-09-11T19:43:21.311Z,1.50
2017-09-11T19:45:51.654Z,1.60
2017-09-11T19:48:23.788Z,1.60
2017-09-11T19:50:54.591Z,1.60
2017-09-11T19:53:23.932Z,1.83
2017-09-11T19:55:53.425Z,2.13
2017-09-11T19:58:23.153Z,1.73
2017-09-11T20:00:52.568Z,1.90
2017-09-11T20:03:21.940Z,1.80
2017-09-11T20:05:51.529Z,1.70
2017-09-11T20:08:22.001Z,2.27
2017-09-11T20:10:52.624Z,1.83
2017-09-11T20:13:23.325Z,2.00
2017-09-11T20:15:52.721Z,2.13
2017-09-11T20:18:23.417Z,1.87
2017-09-11T20:20:54.854Z,1.70
2017-09-11T20:23:24.203Z,1.90
2017-09-11T20:25:53.755Z,1.53
2017-09-11T20:28:23.176Z,1.60
2017-09-11T20:30:53.031Z,1.63
2017-09-11T20:33:22.343Z,1.50
2017-09-11T20:35:52.125Z,2.03
2017-09-11T20:38:21.634Z,1.57
2017-09-11T20:40:51.241Z,1.67
2017-09-11T20:43:20.865Z,1.60
2017-09-11T20:45:51.461Z,2.00
2017-09-11T20:48:20.844Z,1.70
2017-09-11T20:50:50.223Z,1.60
2017-09-11T20:53:19.539Z,1.40
2017-09-11T20:55:48.968Z,1.40
2017-09-11T20:58:18.532Z,1.50
2017-09-11T21:00:47.993Z,1.47
2017-09-11T21:03:17.459Z,1.80
2017-09-11T21:05:46.864Z,1.40
2017-09-11T21:08:16.765Z,1.23
2017-09-11T21:10:46.240Z,1.63
2017-09-11T21:13:15.758Z,1.60
2017-09-11T21:15:45.184Z,2.00
2017-09-11T21:18:14.587Z,2.10
2017-09-11T21:20:44.014Z,1.67
2017-09-11T21:23:13.536Z,1.53
2017-09-11T21:25:43.049Z,1.57
2017-09-11T21:28:12.446Z,1.73
2017-09-11T21:30:41.883Z,1.67
2017-09-11T21:33:11.256Z,1.70
2017-09-11T21:35:40.764Z,1.70
2017-09-11T21:38:10.285Z,2.17
2017-09-11T21:40:39.762Z,1.73
2017-09-11T21:43:09.162Z,1.80
2017-09-11T21:45:38.598Z,1.77
2017-09-11T21:48:07.932Z,1.93
2017-09-11T21:50:37.356Z,1.90
2017-09-11T21:53:06.719Z,1.60
2017-09-11T21:55:36.086Z,1.40
2017-09-11T21:58:05.484Z,2.00
2017-09-11T22:00:34.844Z,1.80
2017-09-11T22:05:40.045Z,1.90
2017-09-11T22:08:09.562Z,1.60
2017-09-11T22:10:39.026Z,1.97
2017-09-11T22:13:08.500Z,1.73
2017-09-11T22:15:38.108Z,1.90
2017-09-11T22:18:07.490Z,1.70
2017-09-11T22:20:36.870Z,2.17
2017-09-11T22:23:06.202Z,2.07
2017-09-11T22:25:36.044Z,2.00
2017-09-11T22:28:05.578Z,1.80
2017-09-11T22:30:35.270Z,1.87
2017-09-11T22:33:04.656Z,2.17
2017-09-11T22:35:34.042Z,2.07
2017-09-11T22:38:03.455Z,2.30
2017-09-11T22:40:32.825Z,2.83
2017-09-11T22:43:02.262Z,2.00
2017-09-11T22:45:31.732Z,1.90
2017-09-11T22:48:02.053Z,1.77
2017-09-11T22:50:32.174Z,2.07
2017-09-11T22:53:09.077Z,1.87
2017-09-11T22:55:38.832Z,2.13
2017-09-11T22:58:08.228Z,2.43
2017-09-11T23:00:37.587Z,1.77
2017-09-11T23:03:07.632Z,2.10
2017-09-11T23:05:37.593Z,2.00
2017-09-11T23:08:08.072Z,1.80
2017-09-11T23:10:37.593Z,2.60
2017-09-11T23:13:07.068Z,2.13
2017-09-11T23:15:36.722Z,1.93
2017-09-11T23:18:06.104Z,2.20
2017-09-11T23:20:35.459Z,1.60
2017-09-11T23:23:04.815Z,1.97
2017-09-11T23:25:34.186Z,1.73
2017-09-11T23:28:03.589Z,2.30
2017-09-11T23:30:33.087Z,1.80
2017-09-11T23:33:02.488Z,2.00
2017-09-11T23:35:31.842Z,1.93
2017-09-11T23:38:01.190Z,2.33
2017-09-11T23:40:30.585Z,1.53
2017-09-11T23:42:59.920Z,2.07
2017-09-11T23:45:29.630Z,1.97
2017-09-11T23:47:59.109Z,2.00
2017-09-11T23:50:28.567Z,2.17
2017-09-11T23:52:58.008Z,2.07
2017-09-11T23:55:27.453Z,1.60
2017-09-11T23:57:56.848Z,2.17
